Solicitamos su permiso para obtener datos estadísticos de su navegación en esta web, en cumplimiento del Real Decreto-ley 13/2012. Si continúa navegando consideramos que acepta el uso de cookies. OK | Más información

MAPA DE AEROPUERTO

INFORMACIÓN METAR y TAF

METAR FOR LECO
ADDS - METARS form results

(2123 UTC 24 February 2018)
Data provider http://aviationweather.gov/adds/metars/
 
METAR text: LECO 242100Z 16005KT CAVOK 07/03 Q1008 NOSIG
Conditions at: LECO (LA CORUNA/ALVEDR, ES) observed 2100 UTC 24 February 2018
Temperature: 7.0°C (45°F)
Dewpoint: 3.0°C (37°F) [RH = 76%]
Pressure (altimeter): 29.76 inches Hg (1008.0 mb)
Winds: from the SSE (160 degrees) at 6 MPH (5 knots; 2.6 m/s)
Visibility: 6 or more miles (10+ km)
Ceiling: ceiling and visibility are OK
Clouds: unknown
Weather: no significant weather observed at this time

METAR text: LECO 242030Z 14004KT 100V190 CAVOK 07/03 Q1008 NOSIG
Conditions at: LECO (LA CORUNA/ALVEDR, ES) observed 2030 UTC 24 February 2018
Temperature: 7.0°C (45°F)
Dewpoint: 3.0°C (37°F) [RH = 76%]
Pressure (altimeter): 29.76 inches Hg (1008.0 mb)
Winds: from the SE (140 degrees) at 5 MPH (4 knots; 2.1 m/s)
Visibility: 6 or more miles (10+ km)
Ceiling: ceiling and visibility are OK
Clouds: unknown
Weather: no significant weather observed at this time

Forecast for: LECO (LA CORUNA/ALVEDR, ES)
Text: TAF LECO 242000Z 2421/2521 VRB04KT CAVOK TX16/2515Z TN01/2506Z
Forecast period: 2100 UTC 24 February 2018 to 2100 UTC 25 February 2018
Forecast type: FROM: standard forecast or significant change
Winds: variable direction winds at 5 MPH (4 knots; 2.1 m/s)
Visibility: 6 or more miles (10+ km)
Clouds: not forecast
Weather: no significant weather forecast for this period
Text: PROB40
Forecast period: 0300 to 0900 UTC 25 February 2018
Forecast type: TEMPORARY: The following changes expected for less than half the time period
Visibility: 0.93 miles (1.50 km)
Weather: BCFG  (patches of fog)
Text: TEMPO 2503/2509 1500 BCFG
Forecast period: 0300 to 0800 UTC 25 February 2018
Forecast type: TEMPORARY: The following changes expected for less than half the time period
Visibility: 0.37 miles (0.60 km)
Ceiling: indefinite ceiling with vertical visibility of 100 feet AGL
Clouds: obscured sky
Weather: FG  (fog)
Text: PROB30
Forecast period: 1200 to 1800 UTC 25 February 2018
Forecast type: TEMPORARY: The following changes expected for less than half the time period
Winds: from the NNE (20 degrees) at 12 MPH (10 knots; 5.2 m/s)
Weather: no significant weather forecast for this period